Time;durP1;ratioP1;P1;durP2;ratioP2;P2;SDS_P1;SDS_P2;PMS_P1;PMS_P2;Temp;Humidity;BMP_temperature;BMP_pressure;BME280_temperature;BME280_humidity;BME280_pressure;Samples;Min_cycle;Max_cycle;Signal;HPM_P1;HPM_P2
2023/03/11 00:01:25;;;;;;;6.07;1.50;;;1.40;99.90;;;;;;4916033;29;20115;-90
2023/03/11 00:03:50;;;;;;;3.83;1.23;;;1.40;99.90;;;;;;4905192;29;20051;-90
2023/03/11 00:06:16;;;;;;;4.63;1.33;;;1.40;99.90;;;;;;4899094;29;20048;-90
2023/03/11 00:08:42;;;;;;;3.33;1.17;;;1.40;99.90;;;;;;4915988;29;20083;-90
2023/03/11 00:11:07;;;;;;;6.93;1.30;;;1.40;99.90;;;;;;4900054;29;20130;-90
2023/03/11 00:13:35;;;;;;;4.55;1.17;;;1.40;99.90;;;;;;4916018;29;20077;-91
2023/03/11 00:16:01;;;;;;;4.05;1.15;;;1.40;99.90;;;;;;4899148;29;20138;-89
2023/03/11 00:18:30;;;;;;;4.75;1.25;;;1.40;99.90;;;;;;4899250;29;20180;-90
2023/03/11 00:20:57;;;;;;;6.47;1.40;;;1.40;99.90;;;;;;4899451;29;20048;-90
2023/03/11 00:23:24;;;;;;;4.53;1.30;;;1.40;99.90;;;;;;4898517;29;20377;-90
2023/03/11 00:25:49;;;;;;;9.23;1.30;;;1.40;99.90;;;;;;4919353;29;20205;-90
2023/03/11 00:28:15;;;;;;;6.40;1.50;;;1.40;99.90;;;;;;4903219;29;20084;-89
2023/03/11 00:30:43;;;;;;;4.80;1.30;;;1.40;99.90;;;;;;4902465;29;20060;-89
2023/03/11 00:33:11;;;;;;;7.65;1.40;;;1.40;99.90;;;;;;4902881;29;20119;-89
2023/03/11 00:35:37;;;;;;;4.25;1.23;;;1.40;99.90;;;;;;4902415;29;20044;-89
2023/03/11 00:38:06;;;;;;;3.85;1.10;;;1.40;99.90;;;;;;4919298;29;20048;-90
2023/03/11 00:40:33;;;;;;;4.47;1.00;;;1.30;99.90;;;;;;4919039;29;20044;-89
2023/03/11 00:42:59;;;;;;;5.88;1.02;;;1.30;99.90;;;;;;4902987;29;20507;-90
2023/03/11 00:45:26;;;;;;;3.72;1.00;;;1.30;99.90;;;;;;4901622;29;20056;-89
2023/03/11 00:47:53;;;;;;;9.32;1.60;;;1.30;99.90;;;;;;4902575;29;20068;-88
2023/03/11 00:50:22;;;;;;;7.57;1.20;;;1.30;99.90;;;;;;4918185;29;20136;-89
2023/03/11 00:52:49;;;;;;;5.28;1.38;;;1.40;99.90;;;;;;4902891;29;20070;-89
2023/03/11 00:55:21;;;;;;;9.90;1.50;;;1.30;99.90;;;;;;4902473;29;20040;-89
2023/03/11 00:57:46;;;;;;;6.80;1.40;;;1.30;99.90;;;;;;4901915;29;20098;-89
2023/03/11 01:00:14;;;;;;;10.00;1.40;;;1.30;99.90;;;;;;4901273;29;20492;-89
2023/03/11 01:02:40;;;;;;;4.65;1.20;;;1.30;99.90;;;;;;4902207;29;20548;-89
2023/03/11 01:05:06;;;;;;;5.95;1.15;;;1.30;99.90;;;;;;4901082;29;20055;-89
2023/03/11 01:07:32;;;;;;;4.70;1.33;;;1.30;99.90;;;;;;4919103;29;20536;-89
2023/03/11 01:09:58;;;;;;;4.93;1.10;;;1.30;99.90;;;;;;4918927;29;20487;-89
2023/03/11 01:12:24;;;;;;;5.03;1.33;;;1.30;99.90;;;;;;4918061;29;20103;-89
2023/03/11 01:14:50;;;;;;;5.20;1.42;;;1.30;99.90;;;;;;4918694;29;20036;-89
2023/03/11 01:17:15;;;;;;;4.10;1.17;;;1.30;99.90;;;;;;4902509;29;20143;-89
2023/03/11 01:19:41;;;;;;;2.80;1.10;;;1.30;99.90;;;;;;4901104;29;20063;-90
2023/03/11 01:22:07;;;;;;;4.50;1.10;;;1.30;99.90;;;;;;4901769;29;20048;-88
2023/03/11 01:24:32;;;;;;;5.15;1.30;;;1.30;99.90;;;;;;4901733;29;20048;-89
2023/03/11 01:26:58;;;;;;;3.65;1.10;;;1.30;99.90;;;;;;4918221;29;20127;-89
2023/03/11 01:29:23;;;;;;;5.43;1.10;;;1.30;99.90;;;;;;4902063;29;20091;-89
2023/03/11 01:31:49;;;;;;;6.53;1.42;;;1.30;99.90;;;;;;4918874;29;20044;-89
2023/03/11 01:34:15;;;;;;;3.63;0.98;;;1.30;99.90;;;;;;4900663;29;20075;-89
2023/03/11 01:36:41;;;;;;;3.63;1.20;;;1.30;99.90;;;;;;4901113;29;20044;-88
2023/03/11 01:39:07;;;;;;;5.03;1.30;;;1.30;99.90;;;;;;4901740;29;20043;-89
2023/03/11 01:41:32;;;;;;;5.90;1.40;;;1.30;99.90;;;;;;4901127;29;20408;-89
2023/03/11 01:43:58;;;;;;;3.67;1.10;;;1.30;99.90;;;;;;4901647;29;20453;-89
2023/03/11 01:46:25;;;;;;;8.65;1.30;;;1.30;99.90;;;;;;4901046;29;20052;-88
2023/03/11 01:48:56;;;;;;;7.72;1.10;;;1.30;99.90;;;;;;4917201;29;20079;-89
2023/03/11 01:51:30;;;;;;;4.88;1.20;;;1.30;99.90;;;;;;4900897;29;20040;-89
2023/03/11 01:54:04;;;;;;;5.30;1.13;;;1.30;99.90;;;;;;4900597;29;20048;-89
2023/03/11 01:56:30;;;;;;;3.35;1.02;;;1.30;99.90;;;;;;4901636;29;20635;-89
2023/03/11 01:58:57;;;;;;;3.80;1.05;;;1.30;99.90;;;;;;4901126;29;20048;-89
2023/03/11 02:01:23;;;;;;;5.90;1.23;;;1.30;99.90;;;;;;4900011;29;20116;-89
2023/03/11 02:03:50;;;;;;;4.97;1.10;;;1.30;99.90;;;;;;4901111;29;20052;-89
2023/03/11 02:06:22;;;;;;;6.05;1.20;;;1.30;99.90;;;;;;4900812;29;20052;-89
2023/03/11 02:08:49;;;;;;;7.68;1.27;;;1.30;99.90;;;;;;4900547;29;20051;-89
2023/03/11 02:11:21;;;;;;;3.42;1.00;;;1.30;99.90;;;;;;4917663;29;20055;-89
2023/03/11 02:13:48;;;;;;;3.28;1.15;;;1.30;99.90;;;;;;4918203;29;20044;-89
2023/03/11 02:16:14;;;;;;;4.25;1.10;;;1.40;99.90;;;;;;4899812;29;20055;-88
2023/03/11 02:18:42;;;;;;;4.43;1.10;;;1.30;99.90;;;;;;4900460;29;20092;-88
2023/03/11 02:21:28;;;;;;;6.18;1.10;;;1.40;99.90;;;;;;4900291;29;20052;-88
2023/03/11 02:24:08;;;;;;;4.20;1.10;;;1.30;99.90;;;;;;4916966;29;20396;-88
2023/03/11 02:26:49;;;;;;;4.60;1.17;;;1.30;99.90;;;;;;4917070;29;20513;-88
2023/03/11 02:29:15;;;;;;;3.83;1.05;;;1.30;99.90;;;;;;4899033;29;20044;-88
2023/03/11 02:31:42;;;;;;;3.28;0.90;;;1.30;99.90;;;;;;4900725;29;20048;-88
2023/03/11 02:34:16;;;;;;;3.30;1.02;;;1.30;99.90;;;;;;4900856;29;20048;-88
2023/03/11 02:36:42;;;;;;;5.95;1.15;;;1.30;99.90;;;;;;4899541;29;20382;-88
2023/03/11 02:39:08;;;;;;;3.97;0.95;;;1.30;99.90;;;;;;4916943;29;20127;-88
2023/03/11 02:41:37;;;;;;;3.42;0.80;;;1.30;99.90;;;;;;4900187;29;20052;-88
2023/03/11 02:44:07;;;;;;;2.60;0.93;;;1.20;99.90;;;;;;4899682;29;20044;-88
2023/03/11 02:46:34;;;;;;;3.65;0.88;;;1.20;99.90;;;;;;4917305;29;20123;-87
2023/03/11 02:49:01;;;;;;;4.38;1.05;;;1.20;99.90;;;;;;4900417;29;20073;-88
2023/03/11 02:51:27;;;;;;;2.90;0.90;;;1.20;99.90;;;;;;4899022;29;20056;-88
2023/03/11 02:53:58;;;;;;;3.78;1.02;;;1.20;99.90;;;;;;4900126;29;20044;-89
2023/03/11 02:56:24;;;;;;;3.47;1.05;;;1.20;99.90;;;;;;4899781;29;20052;-88
2023/03/11 02:58:50;;;;;;;5.47;0.98;;;1.20;99.90;;;;;;4899267;29;20044;-88
2023/03/11 03:01:15;;;;;;;5.00;1.00;;;1.20;99.90;;;;;;4900087;29;20052;-88
2023/03/11 03:03:41;;;;;;;3.03;0.85;;;1.30;99.90;;;;;;4916720;29;20091;-88
2023/03/11 03:06:07;;;;;;;4.57;1.10;;;1.20;99.90;;;;;;4899495;29;20134;-88
2023/03/11 03:08:32;;;;;;;3.47;0.90;;;1.20;99.90;;;;;;4899632;29;20040;-88
2023/03/11 03:10:58;;;;;;;5.40;0.95;;;1.20;99.90;;;;;;4899066;29;20047;-88
2023/03/11 03:13:25;;;;;;;3.35;0.88;;;1.20;99.90;;;;;;4899636;29;20049;-87
2023/03/11 03:15:51;;;;;;;4.18;0.80;;;1.10;99.90;;;;;;4899630;29;20559;-87
2023/03/11 03:18:18;;;;;;;4.05;1.00;;;1.20;99.90;;;;;;4898929;29;20052;-87
2023/03/11 03:20:43;;;;;;;2.97;0.90;;;1.20;99.90;;;;;;4916584;29;20048;-87
2023/03/11 03:23:09;;;;;;;3.75;0.90;;;1.20;99.90;;;;;;4898886;29;20048;-88
2023/03/11 03:25:35;;;;;;;2.50;0.80;;;1.10;99.90;;;;;;4898869;29;20052;-88
2023/03/11 03:28:01;;;;;;;4.82;1.00;;;1.20;99.90;;;;;;4899631;29;20044;-88
2023/03/11 03:30:28;;;;;;;6.72;1.35;;;1.10;99.90;;;;;;4916089;29;20084;-88
2023/03/11 03:32:56;;;;;;;3.38;0.90;;;1.10;99.90;;;;;;4890043;23;20060;-88
2023/03/11 03:35:22;;;;;;;2.47;0.90;;;1.10;99.90;;;;;;4897063;29;20053;-89
2023/03/11 03:37:48;;;;;;;4.30;0.80;;;1.10;99.90;;;;;;4897947;29;20045;-88
2023/03/11 03:40:16;;;;;;;6.88;1.10;;;1.10;99.90;;;;;;4896491;29;20048;-88
2023/03/11 03:42:41;;;;;;;1.80;0.88;;;1.10;99.90;;;;;;4881128;29;20048;-87
2023/03/11 03:45:08;;;;;;;2.20;0.93;;;1.10;99.90;;;;;;4897479;29;20055;-88
2023/03/11 03:47:35;;;;;;;3.92;1.02;;;1.10;99.90;;;;;;4879529;29;20124;-88
2023/03/11 03:50:06;;;;;;;2.60;0.90;;;1.10;99.90;;;;;;4880197;29;20048;-89
2023/03/11 03:52:32;;;;;;;3.80;1.00;;;1.00;99.90;;;;;;4897159;29;20047;-89
2023/03/11 03:54:57;;;;;;;2.38;0.80;;;1.00;99.90;;;;;;4879772;29;20048;-88
2023/03/11 03:57:23;;;;;;;2.30;0.80;;;1.00;99.90;;;;;;4897069;29;20464;-88
2023/03/11 03:59:49;;;;;;;5.80;1.02;;;1.00;99.90;;;;;;4898465;29;20048;-88
2023/03/11 04:02:15;;;;;;;3.88;0.90;;;1.00;99.90;;;;;;4883586;29;20048;-88
2023/03/11 04:05:06;;;;;;;4.18;0.80;;;1.00;99.90;;;;;;4884049;29;20108;-88
2023/03/11 04:07:39;;;;;;;2.03;0.70;;;1.00;99.90;;;;;;4900649;29;20055;-89
2023/03/11 04:10:06;;;;;;;3.05;0.80;;;0.90;99.90;;;;;;4966864;23;20051;-89
2023/03/11 04:12:57;;;;;;;3.88;0.90;;;0.90;99.90;;;;;;4903147;29;20393;-89
2023/03/11 04:15:24;;;;;;;3.85;0.85;;;0.90;99.90;;;;;;4919051;29;20051;-89
2023/03/11 04:17:50;;;;;;;4.72;0.80;;;0.80;99.90;;;;;;4920146;29;20040;-89
2023/03/11 04:20:19;;;;;;;2.83;0.88;;;0.90;99.90;;;;;;4902779;29;20040;-90
2023/03/11 04:22:45;;;;;;;4.20;1.15;;;0.80;99.90;;;;;;4902603;29;20047;-89
2023/03/11 04:25:13;;;;;;;3.90;0.90;;;0.80;99.90;;;;;;4902645;29;20035;-89
2023/03/11 04:27:51;;;;;;;;;;;;;;;;;;;;;
2023/03/11 04:30:29;;;;;;;1.67;0.70;;;0.80;99.90;;;;;;4912257;29;20049;-88
2023/03/11 04:32:59;;;;;;;2.58;1.00;;;0.80;99.90;;;;;;4903491;29;20108;-89
2023/03/11 04:36:04;;;;;;;4.32;1.20;;;0.80;99.90;;;;;;4900658;29;20052;-90
2023/03/11 04:43:03;;;;;;;;;;;;;;;;;;;;;
2023/03/11 04:56:04;;;;;;;4.28;1.10;;;0.60;99.90;;;;;;4857902;29;20058;-90
2023/03/11 05:01:55;;;;;;;4.82;0.90;;;0.60;99.90;;;;;;4859931;29;20110;-90
2023/03/11 06:23:38;;;;;;;4.60;1.30;;;0.30;99.90;;;;;;6250001;22;20016;-93
2023/03/11 06:39:06;;;;;;;3.30;0.90;;;0.20;99.90;;;;;;6284625;22;20023;-96
2023/03/11 06:44:09;;;;;;;3.55;0.90;;;0.20;99.90;;;;;;6280782;22;20033;-96
2023/03/11 06:46:37;;;;;;;4.03;0.90;;;0.10;99.90;;;;;;6256881;22;20034;-95
2023/03/11 06:49:05;;;;;;;4.32;0.90;;;0.20;99.90;;;;;;6259453;22;20012;-95
2023/03/11 06:51:33;;;;;;;3.47;1.10;;;0.10;99.90;;;;;;6267286;22;20020;-96
2023/03/11 06:54:01;;;;;;;3.40;0.82;;;0.10;99.90;;;;;;6237931;22;20011;-95
2023/03/11 06:56:27;;;;;;;4.18;1.10;;;0.20;99.90;;;;;;6292048;22;20186;-96
2023/03/11 06:58:53;;;;;;;3.67;1.20;;;0.10;99.90;;;;;;6288150;22;20499;-95
2023/03/11 07:01:28;;;;;;;4.25;1.00;;;0.10;99.90;;;;;;6266332;22;20023;-96
2023/03/11 07:03:54;;;;;;;4.35;1.10;;;0.10;99.90;;;;;;6262422;22;20077;-89
2023/03/11 07:06:24;;;;;;;3.88;0.98;;;0.10;99.90;;;;;;6253496;22;20008;-94
2023/03/11 07:08:51;;;;;;;2.67;0.95;;;0.00;99.90;;;;;;6230906;22;20062;-92
2023/03/11 07:11:21;;;;;;;2.92;1.00;;;0.10;99.90;;;;;;6283826;22;20016;-94
2023/03/11 07:13:53;;;;;;;4.43;1.17;;;0.10;99.90;;;;;;6268768;22;20023;-96
2023/03/11 07:16:22;;;;;;;3.33;1.10;;;0.10;99.90;;;;;;6284316;22;20086;-94
2023/03/11 07:18:48;;;;;;;3.88;1.00;;;0.10;99.90;;;;;;6252798;22;20035;-94
2023/03/11 07:21:16;;;;;;;3.67;1.00;;;0.10;99.90;;;;;;6255153;22;20436;-91
2023/03/11 07:23:43;;;;;;;3.15;1.10;;;0.10;99.90;;;;;;6278454;22;20076;-94
2023/03/11 07:26:11;;;;;;;4.35;1.10;;;0.20;99.90;;;;;;6279109;22;20018;-94
2023/03/11 07:28:37;;;;;;;2.20;0.93;;;0.20;99.90;;;;;;6253151;22;20016;-96
2023/03/11 07:31:11;;;;;;;3.40;1.48;;;0.20;99.90;;;;;;6254922;22;20094;-95
2023/03/11 07:33:37;;;;;;;3.97;1.20;;;0.20;99.90;;;;;;6252610;22;20051;-95
2023/03/11 07:36:15;;;;;;;3.65;1.00;;;0.20;99.90;;;;;;6252034;22;20012;-95
2023/03/11 07:38:45;;;;;;;2.15;0.93;;;0.30;99.90;;;;;;6287011;22;20019;-96
2023/03/11 07:41:14;;;;;;;3.92;1.20;;;0.30;99.90;;;;;;6262669;22;20040;-92
2023/03/11 07:43:43;;;;;;;3.83;1.02;;;0.30;99.90;;;;;;6277997;22;20095;-94
2023/03/11 07:46:17;;;;;;;3.33;0.90;;;0.40;99.90;;;;;;6251181;22;20542;-93
2023/03/11 07:48:43;;;;;;;6.55;1.10;;;0.40;99.90;;;;;;6278438;22;20014;-92
2023/03/11 07:51:18;;;;;;;3.83;1.17;;;0.50;99.90;;;;;;6252568;22;20023;-94
2023/03/11 07:53:44;;;;;;;6.40;1.17;;;0.50;99.90;;;;;;6264818;22;20000;-96
2023/03/11 07:56:12;;;;;;;3.35;1.10;;;0.60;99.90;;;;;;6258029;22;20090;-95
2023/03/11 07:58:38;;;;;;;2.72;0.90;;;0.60;99.90;;;;;;6280081;22;20015;-95
2023/03/11 08:01:15;;;;;;;5.38;1.25;;;0.70;99.90;;;;;;6277085;22;20431;-89
2023/03/11 08:03:41;;;;;;;4.03;1.20;;;0.80;99.90;;;;;;6249819;22;20008;-89
2023/03/11 08:06:15;;;;;;;6.28;1.35;;;0.80;99.90;;;;;;6250006;22;20015;-90
2023/03/11 08:08:41;;;;;;;3.58;1.13;;;0.90;99.90;;;;;;6276973;22;20080;-90
2023/03/11 08:11:07;;;;;;;3.20;1.10;;;0.90;99.90;;;;;;6277294;22;20054;-89
2023/03/11 08:13:33;;;;;;;6.28;1.10;;;1.00;99.90;;;;;;6276165;22;20016;-89
2023/03/11 08:16:03;;;;;;;3.88;1.10;;;1.10;99.90;;;;;;6249959;22;20084;-88
2023/03/11 08:18:29;;;;;;;3.70;1.13;;;1.20;99.90;;;;;;6249619;22;20567;-88
2023/03/11 08:20:56;;;;;;;4.75;1.30;;;1.20;99.90;;;;;;6248757;22;20016;-88
2023/03/11 08:23:21;;;;;;;5.72;1.10;;;1.30;99.90;;;;;;6249538;22;20494;-88
2023/03/11 08:25:47;;;;;;;3.88;1.35;;;1.40;99.90;;;;;;6277207;22;20023;-88
2023/03/11 08:28:12;;;;;;;6.10;1.35;;;1.40;99.90;;;;;;6275865;22;20011;-88
2023/03/11 08:30:38;;;;;;;5.45;1.27;;;1.50;99.90;;;;;;6249669;22;20019;-88
2023/03/11 08:33:04;;;;;;;3.55;1.27;;;1.60;99.90;;;;;;6249727;22;20340;-87
2023/03/11 08:35:31;;;;;;;7.60;1.90;;;1.60;99.90;;;;;;6275910;22;20018;-87
2023/03/11 08:37:56;;;;;;;4.45;1.23;;;1.70;99.90;;;;;;6277031;22;20088;-87
2023/03/11 08:40:22;;;;;;;3.63;1.23;;;1.70;99.90;;;;;;6249089;22;20054;-87
2023/03/11 08:42:48;;;;;;;4.10;1.25;;;1.80;99.90;;;;;;6248445;22;20019;-87
2023/03/11 08:45:14;;;;;;;5.70;1.17;;;1.90;99.90;;;;;;6276586;22;20081;-87
2023/03/11 08:47:40;;;;;;;5.07;1.20;;;1.90;99.90;;;;;;6249525;22;20012;-87
2023/03/11 08:50:08;;;;;;;3.63;1.08;;;2.00;99.90;;;;;;6275985;22;20016;-86
2023/03/11 08:52:34;;;;;;;4.90;1.38;;;2.00;99.90;;;;;;6248953;22;20016;-87
2023/03/11 08:55:00;;;;;;;5.45;1.40;;;2.10;99.90;;;;;;6249502;22;20011;-87
2023/03/11 08:57:25;;;;;;;6.03;1.10;;;2.20;99.90;;;;;;6248314;22;20102;-87
2023/03/11 08:59:51;;;;;;;5.38;1.30;;;2.20;99.90;;;;;;6249415;22;20012;-88
2023/03/11 09:02:17;;;;;;;6.68;1.50;;;2.30;99.90;;;;;;6248937;22;20022;-88
2023/03/11 09:04:42;;;;;;;5.55;1.50;;;2.40;99.90;;;;;;6248690;22;20448;-88
2023/03/11 09:07:10;;;;;;;5.50;1.50;;;2.40;99.90;;;;;;6276756;22;20027;-89
2023/03/11 09:09:36;;;;;;;4.35;1.00;;;2.50;99.90;;;;;;6249207;22;20016;-88
2023/03/11 09:12:02;;;;;;;6.20;1.42;;;2.60;99.90;;;;;;6249385;22;20380;-90
2023/03/11 09:14:27;;;;;;;5.65;1.52;;;2.60;99.90;;;;;;6249192;22;20180;-89
2023/03/11 09:16:53;;;;;;;5.80;1.35;;;2.70;99.90;;;;;;6249006;22;20019;-89
2023/03/11 09:19:18;;;;;;;5.47;1.20;;;2.70;99.90;;;;;;6276507;22;20016;-90
2023/03/11 09:21:44;;;;;;;5.18;1.48;;;2.80;99.90;;;;;;6277629;22;20030;-93
2023/03/11 09:24:12;;;;;;;6.30;1.33;;;2.80;99.90;;;;;;6276793;22;20058;-93
2023/03/11 09:26:38;;;;;;;6.18;1.50;;;2.90;99.90;;;;;;6277802;22;20329;-94
2023/03/11 09:29:03;;;;;;;4.07;1.30;;;3.00;99.90;;;;;;6250440;22;20012;-94
2023/03/11 09:31:29;;;;;;;5.55;1.38;;;3.00;99.90;;;;;;6249404;22;20093;-94
2023/03/11 09:33:55;;;;;;;8.00;1.58;;;3.00;99.90;;;;;;6250530;22;20358;-93
2023/03/11 09:36:21;;;;;;;8.60;1.83;;;3.10;99.90;;;;;;6250718;22;20353;-94
2023/03/11 09:38:47;;;;;;;3.70;1.20;;;3.20;99.90;;;;;;6277070;22;20047;-95
2023/03/11 09:41:16;;;;;;;4.97;1.30;;;3.20;99.90;;;;;;6250658;22;20464;-94
2023/03/11 09:43:51;;;;;;;3.25;1.15;;;3.30;99.90;;;;;;6250748;22;20016;-94
2023/03/11 09:46:57;;;;;;;3.80;1.30;;;3.40;99.90;;;;;;6276817;22;20020;-94
2023/03/11 09:49:41;;;;;;;5.70;1.35;;;3.40;99.90;;;;;;6250383;22;20077;-95
2023/03/11 09:56:23;;;;;;;;;;;;;;;;;;;;;
2023/03/11 10:03:45;;;;;;;;;;;;;;;;;;;;;
2023/03/11 10:07:02;;;;;;;6.82;1.50;;;3.70;99.90;;;;;;6190137;22;20015;-93
2023/03/11 10:10:03;;;;;;;6.03;1.55;;;3.80;99.90;;;;;;6236232;22;20022;-93
2023/03/11 10:16:28;;;;;;;5.55;1.48;;;3.90;99.90;;;;;;6243259;22;20077;-92
2023/03/11 10:19:29;;;;;;;6.55;1.30;;;4.00;99.90;;;;;;6251836;22;20012;-89
2023/03/11 10:25:28;;;;;;;4.68;1.50;;;4.20;99.90;;;;;;6251423;22;20019;-88
2023/03/11 10:28:04;;;;;;;4.10;1.38;;;4.20;99.90;;;;;;6250033;22;20011;-89
2023/03/11 10:30:43;;;;;;;4.63;1.50;;;4.30;99.90;;;;;;6250506;22;20023;-89
2023/03/11 10:33:27;;;;;;;5.30;1.50;;;4.30;99.90;;;;;;6250847;22;20015;-91
2023/03/11 10:35:55;;;;;;;4.65;1.20;;;4.40;99.90;;;;;;6250414;22;20015;-91
2023/03/11 10:38:29;;;;;;;5.05;1.40;;;4.50;99.90;;;;;;6250805;22;20074;-91
2023/03/11 10:40:59;;;;;;;6.18;1.60;;;4.50;99.90;;;;;;6251312;22;20011;-89
2023/03/11 10:43:27;;;;;;;4.72;1.55;;;4.60;99.90;;;;;;6250210;22;20027;-90
2023/03/11 10:45:53;;;;;;;3.80;1.30;;;4.60;99.90;;;;;;6250719;22;20023;-90
2023/03/11 10:48:21;;;;;;;8.15;1.45;;;4.70;99.90;;;;;;6249531;22;20103;-89
2023/03/11 10:51:25;;;;;;;5.13;1.35;;;4.70;99.90;;;;;;6250750;22;20016;-90
2023/03/11 10:53:56;;;;;;;4.93;1.27;;;4.70;99.90;;;;;;6130156;23;20022;-91
2023/03/11 10:56:32;;;;;;;4.35;1.40;;;4.80;99.90;;;;;;6129109;23;20020;-90
2023/03/11 10:58:59;;;;;;;7.95;1.52;;;4.90;99.90;;;;;;6199470;22;20456;-90
2023/03/11 11:01:25;;;;;;;3.20;1.30;;;5.00;99.90;;;;;;6250736;22;20015;-90
2023/03/11 11:03:54;;;;;;;3.47;1.30;;;5.00;99.90;;;;;;6277190;22;20015;-90
2023/03/11 11:06:35;;;;;;;5.93;1.38;;;5.00;99.90;;;;;;6277437;22;20452;-90
2023/03/11 11:09:20;;;;;;;4.55;1.10;;;5.10;99.90;;;;;;6250581;22;20016;-90
2023/03/11 11:12:17;;;;;;;3.70;1.08;;;5.10;99.90;;;;;;6251112;22;20030;-88
2023/03/11 11:14:51;;;;;;;4.88;1.30;;;5.20;99.90;;;;;;6258510;22;20015;-91
2023/03/11 11:17:27;;;;;;;5.47;1.45;;;5.20;99.90;;;;;;6257497;22;20099;-95
2023/03/11 11:19:55;;;;;;;6.68;1.27;;;5.30;99.90;;;;;;6250805;22;20054;-91
2023/03/11 11:22:22;;;;;;;4.50;1.35;;;5.40;99.90;;;;;;6251014;22;20019;-91
2023/03/11 11:24:50;;;;;;;4.72;1.27;;;5.40;99.90;;;;;;6257870;22;20019;-91
2023/03/11 11:27:22;;;;;;;3.75;1.10;;;5.50;99.90;;;;;;6250008;22;20016;-92
2023/03/11 11:30:14;;;;;;;4.63;1.10;;;5.50;99.90;;;;;;6277974;22;20062;-90
2023/03/11 11:32:41;;;;;;;4.30;1.20;;;5.50;99.90;;;;;;6250109;22;20019;-90
2023/03/11 11:35:12;;;;;;;5.32;1.40;;;5.60;99.90;;;;;;6250385;22;20339;-91
2023/03/11 11:38:07;;;;;;;4.13;1.40;;;5.60;99.90;;;;;;6249371;22;20103;-90
2023/03/11 11:40:33;;;;;;;7.43;1.20;;;5.70;99.90;;;;;;6247181;22;20023;-90
2023/03/11 11:43:13;;;;;;;6.10;1.30;;;5.70;99.90;;;;;;6249644;22;20016;-89
2023/03/11 11:45:43;;;;;;;5.80;1.30;;;5.70;99.90;;;;;;6276327;22;20012;-88
2023/03/11 11:48:46;;;;;;;7.00;1.73;;;5.80;99.90;;;;;;6250798;22;20028;-87
2023/03/11 11:51:27;;;;;;;4.80;1.30;;;5.80;99.90;;;;;;6275051;22;20084;-87
2023/03/11 11:54:14;;;;;;;6.97;1.30;;;5.90;99.90;;;;;;6275649;22;20015;-87
2023/03/11 11:56:40;;;;;;;4.60;0.90;;;5.90;99.90;;;;;;6246308;22;20118;-86
2023/03/11 11:59:20;;;;;;;8.13;1.20;;;5.90;99.90;;;;;;6245955;22;20016;-85
2023/03/11 12:01:49;;;;;;;7.85;1.23;;;6.00;99.90;;;;;;6247252;22;20020;-87
2023/03/11 12:04:36;;;;;;;6.28;1.13;;;6.00;99.90;;;;;;6248690;22;20016;-86
2023/03/11 12:07:13;;;;;;;5.32;1.13;;;6.10;99.90;;;;;;6249565;22;20316;-86
2023/03/11 12:10:02;;;;;;;4.55;1.10;;;6.10;99.90;;;;;;6275075;22;20019;-87
2023/03/11 12:12:41;;;;;;;4.07;1.20;;;6.20;99.90;;;;;;6247377;22;20217;-87
2023/03/11 12:15:17;;;;;;;3.10;1.10;;;6.20;99.90;;;;;;6276638;22;20012;-86
2023/03/11 12:17:46;;;;;;;7.90;1.50;;;6.20;99.90;;;;;;6276053;22;20012;-87
2023/03/11 12:20:41;;;;;;;4.43;1.25;;;6.30;99.90;;;;;;6274018;22;20003;-87
2023/03/11 12:23:23;;;;;;;6.07;1.38;;;6.30;99.90;;;;;;6248412;22;20062;-87
2023/03/11 12:26:02;;;;;;;4.32;1.17;;;6.40;99.90;;;;;;6248057;22;20038;-86
2023/03/11 12:28:46;;;;;;;3.90;1.08;;;6.40;99.90;;;;;;6246776;22;20016;-87
2023/03/11 12:31:12;;;;;;;5.18;1.20;;;6.40;99.90;;;;;;6248333;22;20060;-87
2023/03/11 12:33:50;;;;;;;6.20;1.10;;;6.50;99.90;;;;;;6247271;22;20020;-88
2023/03/11 12:36:30;;;;;;;6.85;1.30;;;6.50;99.90;;;;;;6275262;22;20018;-88
2023/03/11 12:38:58;;;;;;;3.45;1.20;;;6.50;99.90;;;;;;6275533;22;20007;-88
2023/03/11 12:41:27;;;;;;;4.18;1.05;;;6.50;99.90;;;;;;6246582;22;20145;-89
2023/03/11 12:43:57;;;;;;;8.85;1.50;;;6.50;99.90;;;;;;6247307;22;20468;-90
2023/03/11 12:46:58;;;;;;;5.40;1.30;;;6.60;99.90;;;;;;6246904;22;20039;-89
2023/03/11 12:49:25;;;;;;;8.23;1.88;;;6.60;99.90;;;;;;6245899;22;20051;-91
2023/03/11 12:52:04;;;;;;;5.10;1.55;;;6.60;99.90;;;;;;6247660;22;20023;-91
2023/03/11 12:54:36;;;;;;;4.35;1.02;;;6.60;99.90;;;;;;6275042;22;20034;-91
2023/03/11 12:57:19;;;;;;;4.68;0.90;;;6.60;99.90;;;;;;6247775;22;20018;-93
2023/03/11 13:00:00;;;;;;;;;;;6.60;99.90;;;;;;6276031;22;20022;-92
2023/03/11 13:02:47;;;;;;;4.93;0.90;;;6.50;99.90;;;;;;6275486;22;19921;-94
2023/03/11 13:05:46;;;;;;;7.38;1.13;;;6.60;99.90;;;;;;6248658;22;20022;-93
2023/03/11 13:08:35;;;;;;;4.63;0.85;;;6.60;99.90;;;;;;6278386;22;20016;-93
2023/03/11 13:11:20;;;;;;;6.72;1.02;;;6.60;99.90;;;;;;6252344;22;20012;-96
2023/03/11 13:13:46;;;;;;;3.40;0.95;;;6.60;99.90;;;;;;6253746;22;20016;-95
2023/03/11 13:16:12;;;;;;;5.97;1.02;;;6.70;99.90;;;;;;6258120;22;20022;-93
2023/03/11 13:18:39;;;;;;;4.32;0.95;;;6.70;99.90;;;;;;6251154;22;20193;-92
2023/03/11 13:21:31;;;;;;;4.35;1.10;;;6.70;99.90;;;;;;6250071;22;20049;-94
2023/03/11 13:24:21;;;;;;;4.57;0.90;;;6.70;99.90;;;;;;6249216;22;20019;-91
2023/03/11 13:26:59;;;;;;;6.72;0.93;;;6.70;99.90;;;;;;6249482;22;20011;-90
2023/03/11 13:30:19;;;;;;;8.15;1.35;;;6.70;99.90;;;;;;6276442;22;20016;-93
2023/03/11 13:33:11;;;;;;;7.10;0.85;;;6.70;99.90;;;;;;6128670;23;20013;-92
2023/03/11 13:36:06;;;;;;;4.15;0.80;;;6.60;99.90;;;;;;6276206;22;20016;-93
2023/03/11 13:39:05;;;;;;;7.07;0.82;;;6.60;99.50;;;;;;6278566;22;20012;-91
2023/03/11 13:41:36;;;;;;;3.95;1.00;;;6.60;99.10;;;;;;6278528;22;20073;-93
2023/03/11 13:44:13;;;;;;;6.55;1.08;;;6.60;98.80;;;;;;6278496;22;20018;-92
2023/03/11 13:46:42;;;;;;;7.05;0.80;;;6.60;98.90;;;;;;6254243;22;20046;-94
2023/03/11 13:49:35;;;;;;;4.28;0.90;;;6.60;99.30;;;;;;6255209;22;20180;-95
2023/03/11 13:52:03;;;;;;;6.00;0.80;;;6.60;99.10;;;;;;6280356;22;20012;-92
2023/03/11 13:54:41;;;;;;;5.65;0.98;;;6.60;99.30;;;;;;6253274;22;20020;-95
2023/03/11 13:57:22;;;;;;;7.57;1.35;;;6.60;99.60;;;;;;6253895;22;20020;-91
2023/03/11 13:59:53;;;;;;;7.07;1.10;;;6.60;99.00;;;;;;6251855;22;20008;-90
2023/03/11 14:02:24;;;;;;;2.45;0.77;;;6.60;99.20;;;;;;6251551;22;20447;-92
2023/03/11 14:05:18;;;;;;;7.43;1.23;;;6.50;99.40;;;;;;6251671;22;20012;-92
2023/03/11 14:07:43;;;;;;;;;;;6.60;98.70;;;;;;6247832;22;20847;-92
2023/03/11 14:10:30;;;;;;;6.70;1.00;;;6.50;98.50;;;;;;6251993;22;19915;-93
2023/03/11 14:13:13;;;;;;;5.35;1.15;;;6.50;99.10;;;;;;6252705;22;20016;-92
2023/03/11 14:16:00;;;;;;;6.63;0.90;;;6.50;98.90;;;;;;6254025;22;20074;-94
2023/03/11 14:18:36;;;;;;;4.47;1.20;;;6.50;98.80;;;;;;6278966;22;20462;-95
2023/03/11 14:21:04;;;;;;;6.32;1.40;;;6.50;99.00;;;;;;6254972;22;20016;-95
2023/03/11 14:23:38;;;;;;;3.33;0.57;;;6.50;99.30;;;;;;6279676;22;20012;-91
2023/03/11 14:26:08;;;;;;;4.65;0.80;;;6.50;98.70;;;;;;6279777;22;20329;-96
2023/03/11 14:28:37;;;;;;;6.28;0.80;;;6.40;98.20;;;;;;6281378;22;20037;-96
2023/03/11 14:31:04;;;;;;;4.10;0.88;;;6.50;98.10;;;;;;6253234;22;20023;-94
2023/03/11 14:33:30;;;;;;;4.75;1.00;;;6.50;98.10;;;;;;6253788;22;20554;-96
2023/03/11 14:35:58;;;;;;;5.47;1.10;;;6.50;98.10;;;;;;6283942;22;20012;-92
2023/03/11 14:38:30;;;;;;;5.03;0.98;;;6.50;98.10;;;;;;6254946;22;20424;-93
2023/03/11 14:40:58;;;;;;;4.53;1.00;;;6.50;98.70;;;;;;6279171;22;20037;-93
2023/03/11 14:43:25;;;;;;;4.78;0.85;;;6.50;98.70;;;;;;6251338;22;20336;-93
2023/03/11 14:45:52;;;;;;;5.95;1.30;;;6.50;98.60;;;;;;6251721;22;20020;-93
2023/03/11 14:48:20;;;;;;;3.17;0.90;;;6.60;98.80;;;;;;6250888;22;20046;-93
2023/03/11 14:50:48;;;;;;;9.18;1.05;;;6.50;98.80;;;;;;6252043;22;20055;-93
2023/03/11 14:53:25;;;;;;;5.18;0.95;;;6.50;98.50;;;;;;6251550;22;20016;-94
2023/03/11 14:55:59;;;;;;;6.75;1.23;;;6.50;98.40;;;;;;6278702;22;20120;-94
2023/03/11 14:58:45;;;;;;;5.65;1.08;;;6.50;98.60;;;;;;6252342;22;20098;-95
2023/03/11 15:01:28;;;;;;;6.80;1.02;;;6.50;98.50;;;;;;6281957;22;20069;-94
2023/03/11 15:03:54;;;;;;;;;;;6.50;98.30;;;;;;6280571;22;20058;-95
2023/03/11 15:06:24;;;;;;;4.03;0.98;;;6.40;98.00;;;;;;6279416;22;19915;-95
2023/03/11 15:08:55;;;;;;;8.07;1.17;;;6.40;98.90;;;;;;6253876;22;20015;-94
2023/03/11 15:11:24;;;;;;;6.63;1.65;;;6.50;99.00;;;;;;6282264;22;20016;-96
2023/03/11 15:13:51;;;;;;;5.15;1.58;;;6.50;99.20;;;;;;6254047;22;20039;-95
2023/03/11 15:16:35;;;;;;;5.82;1.75;;;6.50;98.70;;;;;;6253993;22;20016;-95
2023/03/11 15:19:27;;;;;;;10.43;4.10;;;6.50;99.40;;;;;;6283439;22;20019;-95
2023/03/11 15:21:57;;;;;;;5.80;1.98;;;6.50;99.40;;;;;;6241898;22;20015;-96
2023/03/11 15:24:25;;;;;;;4.22;1.38;;;6.50;99.60;;;;;;6257166;22;20035;-94
2023/03/11 15:27:18;;;;;;;8.95;2.03;;;6.50;99.70;;;;;;6255288;22;20046;-94
2023/03/11 15:29:53;;;;;;;6.10;2.97;;;6.50;99.80;;;;;;6291551;22;20470;-94
2023/03/11 15:32:31;;;;;;;5.10;1.95;;;6.50;99.60;;;;;;6267001;22;20020;-94
2023/03/11 15:35:18;;;;;;;8.27;2.28;;;6.50;99.20;;;;;;6284877;22;19999;-95
2023/03/11 15:37:44;;;;;;;8.48;2.92;;;6.40;98.90;;;;;;6267832;22;20019;-96